createdAt,value
2022-09-12T00:01:16.495Z,99186.56
2022-09-12T00:03:18.852Z,99189.28
2022-09-12T00:05:21.821Z,99192.91
2022-09-12T00:07:23.931Z,99192.91
2022-09-12T00:09:26.092Z,99196.50
2022-09-12T00:11:28.840Z,99195.63
2022-09-12T00:13:31.019Z,99192.16
2022-09-12T00:15:33.061Z,99197.72
2022-09-12T00:17:36.831Z,99202.22
2022-09-12T00:19:38.884Z,99203.19
2022-09-12T00:21:41.951Z,99199.34
2022-09-12T00:23:45.433Z,99195.63
2022-09-12T00:25:48.772Z,99203.19
2022-09-12T00:27:53.893Z,99198.25
2022-09-12T00:29:56.242Z,99205.81
2022-09-12T00:32:00.467Z,99203.97
2022-09-12T00:34:05.509Z,99207.66
2022-09-12T00:36:15.547Z,99202.22
2022-09-12T00:38:17.933Z,99208.19
2022-09-12T00:40:20.083Z,99200.13
2022-09-12T00:42:22.675Z,99197.78
2022-09-12T00:44:24.632Z,99201.50
2022-09-12T00:46:41.309Z,99196.91
2022-09-12T00:48:49.593Z,99197.06
2022-09-12T00:50:53.869Z,99212.16
2022-09-12T00:53:03.136Z,99209.41
2022-09-12T00:55:13.378Z,99206.84
2022-09-12T00:57:18.708Z,99209.31
2022-09-12T00:59:37.786Z,99214.38
2022-09-12T01:01:44.732Z,99208.06
2022-09-12T01:03:47.796Z,99206.34
2022-09-12T01:06:07.768Z,99205.88
2022-09-12T01:08:12.071Z,99203.75
2022-09-12T01:10:15.223Z,99211.06
2022-09-12T01:12:17.866Z,99209.19
2022-09-12T01:14:20.878Z,99214.28
2022-09-12T01:16:22.937Z,99214.13
2022-09-12T01:18:51.303Z,99214.91
2022-09-12T01:21:41.947Z,99210.81
2022-09-12T01:24:14.840Z,99211.94
2022-09-12T01:26:50.659Z,99207.84
2022-09-12T01:29:11.412Z,99215.03
2022-09-12T01:31:20.222Z,99216.66
2022-09-12T01:33:37.301Z,99213.06
2022-09-12T01:36:09.961Z,99214.66
2022-09-12T01:38:39.970Z,99223.22
2022-09-12T01:41:04.038Z,99213.28
2022-09-12T01:43:32.833Z,99217.13
2022-09-12T01:45:46.764Z,99216.16
2022-09-12T01:48:20.393Z,99209.69
2022-09-12T01:50:30.457Z,99205.84
2022-09-12T01:52:56.565Z,99204.25
2022-09-12T01:55:25.649Z,99212.91
2022-09-12T01:57:37.569Z,99208.31
2022-09-12T01:59:51.461Z,99214.03
2022-09-12T02:02:18.468Z,99205.50
2022-09-12T02:04:33.956Z,99209.69
2022-09-12T02:07:05.621Z,99211.31
2022-09-12T02:09:15.363Z,99204.25
2022-09-12T02:11:18.609Z,99205.25
2022-09-12T02:13:38.162Z,99206.47
2022-09-12T02:15:49.935Z,99200.16
2022-09-12T02:17:53.757Z,99214.88
2022-09-12T02:20:03.704Z,99222.31
2022-09-12T02:22:10.130Z,99220.09
2022-09-12T02:24:15.160Z,99213.91
2022-09-12T02:26:24.086Z,99228.25
2022-09-12T02:28:35.499Z,99228.38
2022-09-12T02:30:48.176Z,99231.47
2022-09-12T02:33:01.694Z,99226.75
2022-09-12T02:35:20.191Z,99235.44
2022-09-12T02:37:57.532Z,99236.16
2022-09-12T02:40:00.990Z,99240.63
2022-09-12T02:42:04.473Z,99244.06
2022-09-12T02:44:06.694Z,99241.56
2022-09-12T02:46:15.442Z,99247.13
2022-09-12T02:48:17.629Z,99251.72
2022-09-12T02:50:20.273Z,99255.19
2022-09-12T02:52:22.685Z,99253.16
2022-09-12T02:54:25.892Z,99253.41
2022-09-12T02:56:30.934Z,99247.13
2022-09-12T02:58:33.934Z,99246.00
2022-09-12T03:00:45.338Z,99251.31
2022-09-12T03:03:34.732Z,99248.47
2022-09-12T03:06:01.334Z,99249.44
2022-09-12T03:08:15.207Z,99257.41
2022-09-12T03:10:20.586Z,99258.63
2022-09-12T03:12:45.585Z,99261.75
2022-09-12T03:15:06.378Z,99251.31
2022-09-12T03:17:36.471Z,99248.59
2022-09-12T03:19:55.131Z,99250.56
2022-09-12T03:22:16.002Z,99254.28
2022-09-12T03:24:18.668Z,99250.34
2022-09-12T03:26:28.769Z,99248.09
2022-09-12T03:28:33.383Z,99240.16
2022-09-12T03:30:54.881Z,99241.75
2022-09-12T03:32:57.055Z,99245.84
2022-09-12T03:34:59.199Z,99243.56
2022-09-12T03:37:02.921Z,99244.47
2022-09-12T03:39:04.960Z,99249.78
2022-09-12T03:41:07.588Z,99244.97
2022-09-12T03:43:11.218Z,99242.97
2022-09-12T03:45:13.321Z,99245.94
2022-09-12T03:47:15.172Z,99254.13
2022-09-12T03:49:17.989Z,99254.63
2022-09-12T03:51:20.034Z,99254.63
2022-09-12T03:53:22.299Z,99257.59
2022-09-12T03:55:24.363Z,99262.63
2022-09-12T03:57:26.449Z,99258.53
2022-09-12T03:59:28.397Z,99267.69
2022-09-12T04:01:31.106Z,99269.31
2022-09-12T04:03:33.367Z,99266.59
2022-09-12T04:05:38.476Z,99273.91
2022-09-12T04:07:40.776Z,99279.09
2022-09-12T04:09:43.057Z,99279.19
2022-09-12T04:11:47.500Z,99274.75
2022-09-12T04:13:49.909Z,99280.19
2022-09-12T04:15:59.570Z,99274.09
2022-09-12T04:18:05.697Z,99273.75
2022-09-12T04:20:08.445Z,99281.94
2022-09-12T04:22:10.410Z,99281.94
2022-09-12T04:24:12.750Z,99282.91
2022-09-12T04:26:19.932Z,99284.78
2022-09-12T04:28:23.304Z,99292.28
2022-09-12T04:30:25.655Z,99285.44
2022-09-12T04:32:30.275Z,99284.56
2022-09-12T04:34:32.788Z,99291.66
2022-09-12T04:36:35.127Z,99291.97
2022-09-12T04:38:37.817Z,99301.88
2022-09-12T04:40:40.329Z,99295.47
2022-09-12T04:42:42.565Z,99298.06
2022-09-12T04:44:45.761Z,99301.75
2022-09-12T04:46:50.450Z,99304.47
2022-09-12T04:48:56.638Z,99302.56
2022-09-12T04:51:11.505Z,99300.91
2022-09-12T04:53:14.111Z,99299.84
2022-09-12T04:55:16.599Z,99300.81
2022-09-12T04:57:18.875Z,99300.03
2022-09-12T04:59:22.302Z,99304.81
2022-09-12T05:01:25.241Z,99304.78
2022-09-12T05:03:28.790Z,99308.13
2022-09-12T05:05:31.241Z,99310.97
2022-09-12T05:07:34.007Z,99311.84
2022-09-12T05:09:36.379Z,99310.41
2022-09-12T05:14:09.341Z,99319.44
2022-09-12T05:16:13.790Z,99319.97
2022-09-12T05:18:15.747Z,99326.56
2022-09-12T05:20:17.634Z,99326.94
2022-09-12T05:22:19.430Z,99324.50
2022-09-12T05:24:21.116Z,99321.19
2022-09-12T05:26:23.584Z,99336.03
2022-09-12T05:28:29.576Z,99334.66
2022-09-12T05:30:31.357Z,99333.56
2022-09-12T05:32:33.231Z,99339.88
2022-09-12T05:34:34.947Z,99335.91
2022-09-12T05:36:37.263Z,99335.31
2022-09-12T05:38:39.296Z,99337.94
2022-09-12T05:40:41.050Z,99340.47
2022-09-12T05:42:43.001Z,99337.22
2022-09-12T05:44:44.736Z,99339.91
2022-09-12T05:46:50.466Z,99337.81
2022-09-12T05:48:56.468Z,99342.00
2022-09-12T05:51:03.875Z,99343.81
2022-09-12T05:53:05.709Z,99339.88
2022-09-12T05:55:08.074Z,99342.34
2022-09-12T05:57:09.822Z,99340.50
2022-09-12T05:59:21.220Z,99341.00
2022-09-12T06:01:24.217Z,99342.53
2022-09-12T06:03:26.285Z,99344.41
2022-09-12T06:05:28.088Z,99346.28
2022-09-12T06:07:29.850Z,99339.88
2022-09-12T06:09:32.753Z,99341.94
2022-09-12T06:11:37.350Z,99338.47
2022-09-12T06:13:42.733Z,99343.41
2022-09-12T06:15:44.499Z,99344.47
2022-09-12T06:17:51.392Z,99346.09
2022-09-12T06:19:53.587Z,99343.72
2022-09-12T06:21:55.446Z,99341.25
2022-09-12T06:23:58.966Z,99351.44
2022-09-12T06:26:01.537Z,99344.00
2022-09-12T06:28:03.425Z,99339.94
2022-09-12T06:30:06.999Z,99351.56
2022-09-12T06:32:10.541Z,99342.69
2022-09-12T06:34:14.680Z,99353.28
2022-09-12T06:36:22.611Z,99354.16
2022-09-12T06:38:24.368Z,99355.91
2022-09-12T06:40:27.591Z,99357.16
2022-09-12T06:42:29.273Z,99355.78
2022-09-12T06:44:32.135Z,99356.41
2022-09-12T06:46:33.996Z,99357.41
2022-09-12T06:48:41.041Z,99365.59
2022-09-12T06:50:43.773Z,99360.56
2022-09-12T06:52:45.785Z,99362.88
2022-09-12T06:54:47.923Z,99365.41
2022-09-12T06:56:49.659Z,99361.16
2022-09-12T06:58:53.217Z,99362.78
2022-09-12T07:01:19.340Z,99360.41
2022-09-12T07:03:21.242Z,99373.94
2022-09-12T07:05:23.546Z,99376.16
2022-09-12T07:07:25.318Z,99380.31
2022-09-12T07:09:27.168Z,99383.28
2022-09-12T07:11:32.145Z,99384.56
2022-09-12T07:13:34.051Z,99385.19
2022-09-12T07:15:36.516Z,99375.78
2022-09-12T07:17:38.249Z,99382.97
2022-09-12T07:19:40.108Z,99376.91
2022-09-12T07:21:42.202Z,99381.84
2022-09-12T07:23:45.569Z,99381.44
2022-09-12T07:25:57.163Z,99387.66
2022-09-12T07:27:59.302Z,99388.66
2022-09-12T07:30:01.601Z,99390.28
2022-09-12T07:32:04.254Z,99385.94
2022-09-12T07:34:06.926Z,99392.63
2022-09-12T07:36:12.559Z,99391.25
2022-09-12T07:38:14.383Z,99393.22
2022-09-12T07:40:16.199Z,99397.72
2022-09-12T07:42:18.074Z,99399.53
2022-09-12T07:44:19.797Z,99391.75
2022-09-12T07:46:22.493Z,99393.91
2022-09-12T07:48:24.825Z,99396.81
2022-09-12T07:50:26.858Z,99399.69
2022-09-12T07:52:28.621Z,99407.78
2022-09-12T07:54:31.913Z,99406.41
2022-09-12T07:56:38.691Z,99403.63
2022-09-12T07:58:43.207Z,99405.50
2022-09-12T08:00:45.981Z,99404.59
2022-09-12T08:02:52.486Z,99405.78
2022-09-12T08:04:54.420Z,99408.47
2022-09-12T08:06:56.234Z,99412.94
2022-09-12T08:08:59.685Z,99411.31
2022-09-12T08:11:04.004Z,99405.22
2022-09-12T08:13:05.817Z,99402.63
2022-09-12T08:15:08.651Z,99407.00
2022-09-12T08:17:10.412Z,99406.84
2022-09-12T08:19:12.158Z,99403.25
2022-09-12T08:21:20.981Z,99407.19
2022-09-12T08:23:23.656Z,99402.56
2022-09-12T08:25:26.066Z,99410.22
2022-09-12T08:27:27.822Z,99403.16
2022-09-12T08:29:29.555Z,99398.44
2022-09-12T08:31:36.776Z,99398.34
2022-09-12T08:33:38.887Z,99397.97
2022-09-12T08:35:40.730Z,99399.56
2022-09-12T08:37:42.506Z,99395.50
2022-09-12T08:39:44.749Z,99396.25
2022-09-12T08:41:48.772Z,99399.22
2022-09-12T08:44:03.053Z,99403.69
2022-09-12T08:46:11.172Z,99402.03
2022-09-12T08:48:14.429Z,99392.59
2022-09-12T08:50:19.869Z,99397.41
2022-09-12T08:52:25.809Z,99394.19
2022-09-12T08:54:31.170Z,99390.81
2022-09-12T08:56:38.255Z,99396.13
2022-09-12T08:58:43.348Z,99395.28
2022-09-12T09:00:48.103Z,99388.84
2022-09-12T09:03:01.878Z,99387.94
2022-09-12T09:05:12.162Z,99396.41
2022-09-12T09:07:26.049Z,99395.22
2022-09-12T09:09:49.122Z,99392.94
2022-09-12T09:12:15.035Z,99383.22
2022-09-12T09:14:44.645Z,99395.56
2022-09-12T09:16:50.002Z,99376.03
2022-09-12T09:18:55.089Z,99385.91
2022-09-12T09:21:16.718Z,99386.00
2022-09-12T09:23:33.790Z,99381.66
2022-09-12T09:25:41.631Z,99375.91
2022-09-12T09:28:09.443Z,99378.66
2022-09-12T09:30:20.227Z,99375.22
2022-09-12T09:32:28.383Z,99373.22
2022-09-12T09:34:31.663Z,99375.09
2022-09-12T09:37:07.731Z,99375.69
2022-09-12T09:39:28.713Z,99379.31
2022-09-12T09:41:30.432Z,99378.63
2022-09-12T09:43:32.437Z,99387.16
2022-09-12T09:45:34.220Z,99379.13
2022-09-12T09:47:36.000Z,99378.81
2022-09-12T09:49:37.838Z,99374.97
2022-09-12T09:51:42.367Z,99376.63
2022-09-12T09:53:53.288Z,99377.31
2022-09-12T09:55:56.943Z,99371.28
2022-09-12T09:57:58.674Z,99372.59
2022-09-12T10:00:30.523Z,99373.88
2022-09-12T10:02:32.712Z,99379.66
2022-09-12T10:04:41.559Z,99377.03
2022-09-12T10:06:44.342Z,99366.25
2022-09-12T10:08:48.686Z,99366.53
2022-09-12T10:10:57.470Z,99359.19
2022-09-12T10:13:34.152Z,99358.44
2022-09-12T10:15:36.659Z,99367.09
2022-09-12T10:17:46.559Z,99363.81
2022-09-12T10:19:59.876Z,99363.47
2022-09-12T10:22:20.223Z,99365.38
2022-09-12T10:24:26.726Z,99361.75
2022-09-12T10:26:34.170Z,99361.91
2022-09-12T10:28:40.039Z,99363.78
2022-09-12T10:30:52.733Z,99367.81
2022-09-12T10:32:59.617Z,99366.09
2022-09-12T10:35:09.216Z,99366.66
2022-09-12T10:37:19.958Z,99364.31
2022-09-12T10:39:22.537Z,99358.94
2022-09-12T10:41:25.134Z,99354.47
2022-09-12T10:43:35.003Z,99361.94
2022-09-12T10:45:37.921Z,99362.91
2022-09-12T10:47:39.758Z,99357.38
2022-09-12T10:49:41.571Z,99358.53
2022-09-12T10:51:43.313Z,99373.94
2022-09-12T10:53:46.825Z,99370.59
2022-09-12T10:56:22.915Z,99369.88
2022-09-12T10:58:46.733Z,99362.97
2022-09-12T11:01:00.828Z,99367.19
2022-09-12T11:03:16.516Z,99373.69
2022-09-12T11:05:39.002Z,99374.09
2022-09-12T11:07:47.341Z,99373.31
2022-09-12T11:09:58.664Z,99367.47
2022-09-12T11:12:38.468Z,99377.06
2022-09-12T11:14:52.669Z,99375.28
2022-09-12T11:17:18.583Z,99362.66
2022-09-12T11:19:57.742Z,99379.03
2022-09-12T11:22:34.410Z,99375.28
2022-09-12T11:24:54.079Z,99376.88
2022-09-12T11:27:11.465Z,99374.97
2022-09-12T11:29:13.456Z,99385.16
2022-09-12T11:31:48.004Z,99384.03
2022-09-12T11:33:56.708Z,99375.22
2022-09-12T11:36:02.839Z,99385.16
2022-09-12T11:38:21.213Z,99378.34
2022-09-12T11:40:42.224Z,99370.66
2022-09-12T11:42:46.172Z,99368.56
2022-09-12T11:44:59.351Z,99367.38
2022-09-12T11:47:08.615Z,99371.88
2022-09-12T11:49:13.670Z,99362.84
2022-09-12T11:51:25.765Z,99369.38
2022-09-12T11:53:37.048Z,99357.34
2022-09-12T11:55:58.673Z,99356.81
2022-09-12T11:58:01.025Z,99354.66
2022-09-12T12:00:21.917Z,99357.75
2022-09-12T12:02:29.935Z,99352.78
2022-09-12T12:05:00.024Z,99355.47
2022-09-12T12:07:08.033Z,99354.66
2022-09-12T12:09:13.656Z,99358.00
2022-09-12T12:11:35.930Z,99350.59
2022-09-12T12:13:52.081Z,99352.25
2022-09-12T12:15:59.730Z,99358.66
2022-09-12T12:18:18.750Z,99357.19
2022-09-12T12:20:23.702Z,99349.09
2022-09-12T12:22:26.365Z,99350.91
2022-09-12T12:24:32.419Z,99350.22
2022-09-12T12:26:43.293Z,99361.59
2022-09-12T12:28:50.959Z,99358.84
2022-09-12T12:31:01.019Z,99355.50
2022-09-12T12:33:26.036Z,99359.34
2022-09-12T12:35:41.902Z,99360.84
2022-09-12T12:37:44.024Z,99354.63
2022-09-12T12:39:49.423Z,99354.47
2022-09-12T12:41:51.800Z,99359.25
2022-09-12T12:43:57.967Z,99358.09
2022-09-12T12:46:03.216Z,99358.94
2022-09-12T12:48:12.048Z,99344.97
2022-09-12T12:50:14.189Z,99358.09
2022-09-12T12:52:18.052Z,99360.13
2022-09-12T12:54:41.409Z,99358.41
2022-09-12T12:56:44.450Z,99358.94
2022-09-12T12:58:46.630Z,99354.63
2022-09-12T13:01:13.689Z,99351.47
2022-09-12T13:03:31.313Z,99360.03
2022-09-12T13:05:44.327Z,99349.03
2022-09-12T13:07:48.346Z,99351.72
2022-09-12T13:09:53.133Z,99347.94
2022-09-12T13:12:05.626Z,99343.88
2022-09-12T13:14:42.925Z,99343.31
2022-09-12T13:16:59.125Z,99350.69
2022-09-12T13:19:17.959Z,99338.44
2022-09-12T13:21:22.516Z,99347.41
2022-09-12T13:23:30.576Z,99341.75
2022-09-12T13:25:37.303Z,99336.97
2022-09-12T13:27:39.684Z,99345.19
2022-09-12T13:29:42.371Z,99340.75
2022-09-12T13:31:47.586Z,99339.88
2022-09-12T13:33:52.244Z,99331.63
2022-09-12T13:36:05.305Z,99328.31
2022-09-12T13:38:36.039Z,99326.91
2022-09-12T13:41:06.095Z,99327.47
2022-09-12T13:43:17.076Z,99332.50
2022-09-12T13:45:22.029Z,99326.53
2022-09-12T13:47:37.176Z,99313.72
2022-09-12T13:49:41.122Z,99318.28
2022-09-12T13:51:43.806Z,99320.41
2022-09-12T13:53:48.293Z,99319.69
2022-09-12T13:55:57.345Z,99323.28
2022-09-12T13:58:02.541Z,99311.63
2022-09-12T14:00:25.080Z,99310.91
2022-09-12T14:02:29.898Z,99307.31
2022-09-12T14:04:50.740Z,99304.22
2022-09-12T14:06:53.338Z,99313.00
2022-09-12T14:09:01.569Z,99313.09
2022-09-12T14:11:10.086Z,99309.41
2022-09-12T14:13:18.323Z,99310.44
2022-09-12T14:15:27.191Z,99313.97
2022-09-12T14:17:36.364Z,99315.69
2022-09-12T14:19:38.931Z,99310.25
2022-09-12T14:21:41.525Z,99314.56
2022-09-12T14:23:48.239Z,99307.19
2022-09-12T14:25:52.245Z,99315.63
2022-09-12T14:27:56.578Z,99314.19
2022-09-12T14:30:25.488Z,99308.00
2022-09-12T14:32:27.932Z,99305.78
2022-09-12T14:34:30.242Z,99309.25
2022-09-12T14:36:40.311Z,99306.84
2022-09-12T14:38:49.630Z,99315.75
2022-09-12T14:40:59.887Z,99311.69
2022-09-12T14:43:03.249Z,99310.84
2022-09-12T14:45:18.210Z,99302.19
2022-09-12T14:47:25.351Z,99313.00
2022-09-12T14:49:35.214Z,99315.06
2022-09-12T14:51:47.125Z,99314.19
2022-09-12T14:53:52.026Z,99313.00
2022-09-12T14:56:12.212Z,99309.19
2022-09-12T14:58:26.648Z,99306.03
2022-09-12T15:00:29.054Z,99303.81
2022-09-12T15:02:31.130Z,99310.19
2022-09-12T15:04:44.521Z,99300.53
2022-09-12T15:06:46.798Z,99303.97
2022-09-12T15:08:49.377Z,99299.50
2022-09-12T15:10:51.633Z,99299.66
2022-09-12T15:13:09.426Z,99305.91
2022-09-12T15:15:18.792Z,99302.50
2022-09-12T15:17:20.881Z,99297.13
2022-09-12T15:19:23.211Z,99301.06
2022-09-12T15:21:25.609Z,99304.97
2022-09-12T15:23:40.497Z,99289.41
2022-09-12T15:25:42.568Z,99295.06
2022-09-12T15:27:50.583Z,99290.75
2022-09-12T15:29:53.553Z,99292.06
2022-09-12T15:31:55.672Z,99296.81
2022-09-12T15:34:00.572Z,99296.41
2022-09-12T15:36:14.011Z,99293.41
2022-09-12T15:38:16.865Z,99296.47
2022-09-12T15:40:20.325Z,99289.25
2022-09-12T15:42:30.021Z,99297.50
2022-09-12T15:44:32.285Z,99294.63
2022-09-12T15:46:34.507Z,99298.69
2022-09-12T15:48:36.582Z,99303.94
2022-09-12T15:50:38.696Z,99302.34
2022-09-12T15:52:41.679Z,99292.69
2022-09-12T15:54:44.425Z,99294.00
2022-09-12T15:56:47.141Z,99295.44
2022-09-12T15:58:58.816Z,99292.47
2022-09-12T16:01:04.368Z,99303.00
2022-09-12T16:03:06.570Z,99295.22
2022-09-12T16:05:16.512Z,99296.78
2022-09-12T16:07:18.973Z,99296.06
2022-09-12T16:09:22.575Z,99292.91
2022-09-12T16:11:27.437Z,99296.13
2022-09-12T16:13:29.784Z,99293.81
2022-09-12T16:15:34.906Z,99300.59
2022-09-12T16:17:37.118Z,99301.06
2022-09-12T16:19:39.246Z,99303.19
2022-09-12T16:21:41.129Z,99289.06
2022-09-12T16:23:44.471Z,99302.22
2022-09-12T16:25:55.896Z,99295.16
2022-09-12T16:27:58.175Z,99288.22
2022-09-12T16:30:01.016Z,99284.91
2022-09-12T16:32:04.162Z,99293.25
2022-09-12T16:34:06.785Z,99288.94
2022-09-12T16:36:17.750Z,99280.44
2022-09-12T16:38:20.932Z,99288.66
2022-09-12T16:40:23.973Z,99284.34
2022-09-12T16:42:26.591Z,99280.16
2022-09-12T16:44:29.183Z,99289.53
2022-09-12T16:46:31.751Z,99282.47
2022-09-12T16:48:34.407Z,99290.94
2022-09-12T16:50:37.817Z,99296.72
2022-09-12T16:52:40.210Z,99290.50
2022-09-12T16:54:44.300Z,99289.78
2022-09-12T16:56:47.190Z,99297.44
2022-09-12T16:58:52.150Z,99294.94
2022-09-12T17:01:03.037Z,99295.66
2022-09-12T17:03:05.019Z,99290.91
2022-09-12T17:05:07.477Z,99301.28
2022-09-12T17:07:10.056Z,99292.34
2022-09-12T17:09:13.150Z,99297.94
2022-09-12T17:11:17.936Z,99295.50
2022-09-12T17:13:19.643Z,99295.78
2022-09-12T17:15:21.600Z,99290.59
2022-09-12T17:17:23.352Z,99300.81
2022-09-12T17:19:28.209Z,99308.31
2022-09-12T17:21:30.153Z,99305.72
2022-09-12T17:23:32.749Z,99306.88
2022-09-12T17:25:34.451Z,99308.88
2022-09-12T17:27:36.187Z,99311.91
2022-09-12T17:29:38.760Z,99313.06
2022-09-12T17:31:41.679Z,99304.09
2022-09-12T17:33:43.708Z,99309.88
2022-09-12T17:35:45.640Z,99310.00
2022-09-12T17:37:47.316Z,99309.41
2022-09-12T17:39:49.648Z,99318.63
2022-09-12T17:41:51.981Z,99314.28
2022-09-12T17:43:58.033Z,99320.19
2022-09-12T17:45:59.719Z,99324.78
2022-09-12T17:48:02.105Z,99329.56
2022-09-12T17:50:30.026Z,99326.09
2022-09-12T17:52:25.735Z,99329.81
2022-09-12T17:54:27.834Z,99342.59
2022-09-12T17:56:31.635Z,99343.47
2022-09-12T17:58:34.433Z,99362.31
2022-09-12T18:00:54.822Z,99352.56
2022-09-12T18:02:57.554Z,99350.38
2022-09-12T18:04:59.531Z,99355.50
2022-09-12T18:07:01.831Z,99356.84
2022-09-12T18:09:06.539Z,99351.47
2022-09-12T18:11:08.533Z,99362.78
2022-09-12T18:13:12.169Z,99361.38
2022-09-12T18:15:14.011Z,99367.88
2022-09-12T18:17:16.273Z,99372.63
2022-09-12T18:19:18.373Z,99381.47
2022-09-12T18:21:20.089Z,99381.84
2022-09-12T18:23:22.393Z,99379.38
2022-09-12T18:25:24.391Z,99388.34
2022-09-12T18:27:26.113Z,99391.59
2022-09-12T18:29:28.330Z,99386.50
2022-09-12T18:31:30.504Z,99385.00
2022-09-12T18:33:33.989Z,99392.72
2022-09-12T18:35:38.218Z,99392.59
2022-09-12T18:37:42.934Z,99388.41
2022-09-12T18:39:44.906Z,99385.94
2022-09-12T18:41:46.750Z,99393.91
2022-09-12T18:43:49.871Z,99395.09
2022-09-12T18:45:51.893Z,99402.28
2022-09-12T18:47:53.525Z,99394.84
2022-09-12T18:49:55.285Z,99398.06
2022-09-12T18:51:57.085Z,99404.41
2022-09-12T18:54:06.134Z,99415.44
2022-09-12T18:56:11.533Z,99410.72
2022-09-12T18:58:13.234Z,99418.28
2022-09-12T19:00:15.197Z,99420.41
2022-09-12T19:02:16.989Z,99419.03
2022-09-12T19:04:18.694Z,99417.28
2022-09-12T19:06:26.224Z,99417.19
2022-09-12T19:08:28.361Z,99419.41
2022-09-12T19:10:35.488Z,99426.56
2022-09-12T19:12:37.533Z,99420.91
2022-09-12T19:14:39.615Z,99422.03
2022-09-12T19:16:41.789Z,99422.13
2022-09-12T19:18:44.350Z,99425.22
2022-09-12T19:20:51.501Z,99427.59
2022-09-12T19:22:53.568Z,99419.91
2022-09-12T19:24:55.393Z,99425.47
2022-09-12T19:26:57.442Z,99426.47
2022-09-12T19:29:00.174Z,99425.34
2022-09-12T19:31:06.644Z,99421.13
2022-09-12T19:33:08.966Z,99428.69
2022-09-12T19:35:13.012Z,99426.56
2022-09-12T19:37:14.862Z,99426.84
2022-09-12T19:39:19.708Z,99423.50
2022-09-12T19:41:21.808Z,99425.47
2022-09-12T19:43:23.924Z,99424.72
2022-09-12T19:45:25.797Z,99426.56
2022-09-12T19:47:27.696Z,99426.31
2022-09-12T19:49:29.639Z,99422.22
2022-09-12T19:51:31.554Z,99427.53
2022-09-12T19:53:33.766Z,99417.50
2022-09-12T19:55:36.559Z,99421.13
2022-09-12T19:57:38.437Z,99424.59
2022-09-12T19:59:40.373Z,99422.25
2022-09-12T20:01:42.215Z,99418.19
2022-09-12T20:03:44.954Z,99427.22
2022-09-12T20:05:46.829Z,99421.41
2022-09-12T20:07:48.673Z,99428.06
2022-09-12T20:09:50.481Z,99425.25
2022-09-12T20:11:52.363Z,99427.72
2022-09-12T20:13:54.349Z,99433.91
2022-09-12T20:15:56.378Z,99423.75
2022-09-12T20:17:58.847Z,99435.66
2022-09-12T20:20:00.858Z,99427.34
2022-09-12T20:22:03.434Z,99426.34
2022-09-12T20:24:08.378Z,99429.69
2022-09-12T20:26:10.982Z,99428.44
2022-09-12T20:28:12.748Z,99434.41
2022-09-12T20:30:15.634Z,99433.28
2022-09-12T20:32:18.373Z,99431.16
2022-09-12T20:34:21.539Z,99430.66
2022-09-12T20:36:25.196Z,99428.69
2022-09-12T20:38:27.013Z,99433.78
2022-09-12T20:40:28.890Z,99439.34
2022-09-12T20:42:30.715Z,99436.38
2022-09-12T20:44:32.497Z,99441.72
2022-09-12T20:46:34.494Z,99441.63
2022-09-12T20:48:37.099Z,99443.09
2022-09-12T20:50:38.916Z,99443.69
2022-09-12T20:52:40.912Z,99443.09
2022-09-12T20:54:42.665Z,99438.38
2022-09-12T20:56:44.731Z,99437.75
2022-09-12T20:58:46.512Z,99441.22
2022-09-12T21:00:48.814Z,99436.78
2022-09-12T21:02:51.804Z,99442.59
2022-09-12T21:04:54.274Z,99429.69
2022-09-12T21:06:56.173Z,99421.63
2022-09-12T21:09:00.976Z,99436.63
2022-09-12T21:11:03.914Z,99430.19
2022-09-12T21:13:05.914Z,99439.00
2022-09-12T21:15:08.362Z,99437.03
2022-09-12T21:17:10.330Z,99441.72
2022-09-12T21:19:12.157Z,99442.59
2022-09-12T21:21:16.338Z,99439.00
2022-09-12T21:23:18.340Z,99438.88
2022-09-12T21:25:20.319Z,99440.97
2022-09-12T21:27:22.203Z,99442.09
2022-09-12T21:29:24.612Z,99444.44
2022-09-12T21:31:26.729Z,99446.44
2022-09-12T21:33:28.963Z,99445.66
2022-09-12T21:35:31.058Z,99438.25
2022-09-12T21:37:33.322Z,99438.38
2022-09-12T21:39:35.470Z,99437.38
2022-09-12T21:41:37.512Z,99444.81
2022-09-12T21:43:40.627Z,99433.03
2022-09-12T21:45:42.576Z,99440.63
2022-09-12T21:47:45.099Z,99433.53
2022-09-12T21:49:47.118Z,99433.53
2022-09-12T21:51:49.124Z,99426.56
2022-09-12T21:53:51.096Z,99423.97
2022-09-12T21:55:53.503Z,99428.31
2022-09-12T21:57:55.811Z,99420.13
2022-09-12T21:59:58.155Z,99424.31
2022-09-12T22:02:00.522Z,99429.75
2022-09-12T22:04:02.587Z,99431.88
2022-09-12T22:06:06.395Z,99426.78
2022-09-12T22:08:08.397Z,99427.03
2022-09-12T22:10:10.910Z,99431.81
2022-09-12T22:12:12.738Z,99419.56
2022-09-12T22:14:15.154Z,99426.25
2022-09-12T22:16:17.835Z,99423.75
2022-09-12T22:18:19.873Z,99424.19
2022-09-12T22:20:21.823Z,99423.06
2022-09-12T22:22:42.194Z,99421.44
2022-09-12T22:24:44.291Z,99419.16
2022-09-12T22:26:46.502Z,99416.91
2022-09-12T22:28:49.349Z,99420.84
2022-09-12T22:30:51.581Z,99425.06
2022-09-12T22:32:53.476Z,99428.88
2022-09-12T22:34:55.729Z,99422.69
2022-09-12T22:36:57.721Z,99424.00
2022-09-12T22:39:00.329Z,99427.06
2022-09-12T22:41:09.838Z,99417.72
2022-09-12T22:43:11.904Z,99418.81
2022-09-12T22:45:13.970Z,99426.38
2022-09-12T22:47:15.944Z,99413.09
2022-09-12T22:49:17.856Z,99417.03
2022-09-12T22:51:19.909Z,99417.03
2022-09-12T22:53:21.802Z,99417.16
2022-09-12T22:55:23.883Z,99417.63
2022-09-12T22:57:26.108Z,99419.44
2022-09-12T22:59:28.157Z,99417.38
2022-09-12T23:01:31.975Z,99411.19
2022-09-12T23:03:34.559Z,99416.00
2022-09-12T23:05:37.107Z,99417.94
2022-09-12T23:07:38.986Z,99417.19
2022-09-12T23:09:40.983Z,99412.84
2022-09-12T23:11:42.847Z,99419.38
2022-09-12T23:13:47.965Z,99409.06
2022-09-12T23:15:57.730Z,99411.34
2022-09-12T23:18:00.031Z,99397.88
2022-09-12T23:20:02.197Z,99395.91
2022-09-12T23:22:04.576Z,99400.91
2022-09-12T23:24:06.709Z,99398.31
2022-09-12T23:26:12.767Z,99397.88
2022-09-12T23:28:14.824Z,99393.31
2022-09-12T23:30:21.359Z,99394.41
2022-09-12T23:32:23.216Z,99386.94
2022-09-12T23:34:25.032Z,99380.94
2022-09-12T23:36:27.375Z,99388.22
2022-09-12T23:38:31.034Z,99381.38
2022-09-12T23:40:32.856Z,99382.44
2022-09-12T23:42:34.682Z,99380.81
2022-09-12T23:44:36.873Z,99373.75
2022-09-12T23:46:38.768Z,99377.78
2022-09-12T23:48:41.031Z,99378.88
2022-09-12T23:50:47.662Z,99378.75
2022-09-12T23:52:49.623Z,99376.88
2022-09-12T23:54:51.621Z,99371.13
2022-09-12T23:56:53.861Z,99366.66
2022-09-12T23:58:55.995Z,99367.75
